createdAt,value
2019-05-29T00:00:38.303Z,16.40
2019-05-29T00:03:08.296Z,16.50
2019-05-29T00:05:37.894Z,16.40
2019-05-29T00:08:08.425Z,16.50
2019-05-29T00:10:37.879Z,16.40
2019-05-29T00:13:08.193Z,16.40
2019-05-29T00:15:37.929Z,16.40
2019-05-29T00:18:08.297Z,16.40
2019-05-29T00:20:37.929Z,16.50
2019-05-29T00:23:08.466Z,16.50
2019-05-29T00:25:37.957Z,16.60
2019-05-29T00:28:08.534Z,16.50
2019-05-29T00:30:38.164Z,16.50
2019-05-29T00:33:07.974Z,16.40
2019-05-29T00:35:38.708Z,16.50
2019-05-29T00:38:08.485Z,16.50
2019-05-29T00:40:38.024Z,16.60
2019-05-29T00:43:09.089Z,16.60
2019-05-29T00:45:38.702Z,16.50
2019-05-29T00:48:09.565Z,16.40
2019-05-29T00:50:39.406Z,16.30
2019-05-29T00:53:10.097Z,16.30
2019-05-29T00:55:41.199Z,16.30
2019-05-29T00:58:10.796Z,16.00
2019-05-29T01:00:40.191Z,16.20
2019-05-29T01:03:09.773Z,16.10
2019-05-29T01:05:39.279Z,15.80
2019-05-29T01:08:10.308Z,15.70
2019-05-29T01:10:40.238Z,15.60
2019-05-29T01:13:11.103Z,15.60
2019-05-29T01:15:40.700Z,15.60
2019-05-29T01:18:10.198Z,15.50
2019-05-29T01:20:40.901Z,15.50
2019-05-29T01:23:10.380Z,15.50
2019-05-29T01:25:39.888Z,15.60
2019-05-29T01:28:09.403Z,15.70
2019-05-29T01:30:38.911Z,15.80
2019-05-29T01:33:08.463Z,15.90
2019-05-29T01:35:37.973Z,15.80
2019-05-29T01:38:07.443Z,15.70
2019-05-29T01:40:36.867Z,15.70
2019-05-29T01:43:06.583Z,15.70
2019-05-29T01:45:36.049Z,15.60
2019-05-29T01:48:05.702Z,15.60
2019-05-29T01:50:35.216Z,15.80
2019-05-29T01:53:04.847Z,15.80
2019-05-29T01:55:34.625Z,15.80
2019-05-29T01:58:04.291Z,15.90
2019-05-29T02:00:33.749Z,15.90
2019-05-29T02:03:03.318Z,16.00
2019-05-29T02:05:32.793Z,16.00
2019-05-29T02:08:02.332Z,16.00
2019-05-29T02:10:31.813Z,16.00
2019-05-29T02:13:01.218Z,16.00
2019-05-29T02:15:33.790Z,16.00
2019-05-29T02:18:01.958Z,16.10
2019-05-29T02:20:31.611Z,16.10
2019-05-29T02:23:01.263Z,16.00
2019-05-29T02:25:30.769Z,16.10
2019-05-29T02:28:00.199Z,16.00
2019-05-29T02:30:30.859Z,16.10
2019-05-29T02:33:00.538Z,16.10
2019-05-29T02:35:29.982Z,15.80
2019-05-29T02:37:59.480Z,15.70
2019-05-29T02:40:30.121Z,15.60
2019-05-29T02:43:00.784Z,15.60
2019-05-29T02:45:50.904Z,15.70
2019-05-29T02:48:01.556Z,15.60
2019-05-29T02:50:31.369Z,15.50
2019-05-29T02:53:00.979Z,15.70
2019-05-29T02:55:31.046Z,15.70
2019-05-29T02:58:01.767Z,15.70
2019-05-29T03:00:34.244Z,15.60
2019-05-29T03:03:03.742Z,15.60
2019-05-29T03:05:33.351Z,15.70
2019-05-29T03:08:03.355Z,15.70
2019-05-29T03:10:33.247Z,15.60
2019-05-29T03:13:02.797Z,15.60
2019-05-29T03:15:33.787Z,15.60
2019-05-29T03:18:03.390Z,15.60
2019-05-29T03:20:34.431Z,15.50
2019-05-29T03:23:04.185Z,15.60
2019-05-29T03:25:35.096Z,15.50
2019-05-29T03:28:05.887Z,15.60
2019-05-29T03:30:42.082Z,15.60
2019-05-29T03:33:06.651Z,15.60
2019-05-29T03:35:43.042Z,15.60
2019-05-29T03:38:07.343Z,15.60
2019-05-29T03:40:38.679Z,15.60
2019-05-29T03:43:08.326Z,15.60
2019-05-29T03:45:38.054Z,15.60
2019-05-29T03:48:08.795Z,15.70
2019-05-29T03:50:38.647Z,15.80
2019-05-29T03:53:08.160Z,15.70
2019-05-29T03:55:38.060Z,15.80
2019-05-29T03:58:07.553Z,15.90
2019-05-29T04:00:45.391Z,15.90
2019-05-29T04:03:08.252Z,15.90
2019-05-29T04:05:38.146Z,16.00
2019-05-29T04:08:07.845Z,15.90
2019-05-29T04:10:39.703Z,15.90
2019-05-29T04:13:10.650Z,15.80
2019-05-29T04:15:42.509Z,15.80
2019-05-29T04:18:12.166Z,15.80
2019-05-29T04:20:44.361Z,15.80
2019-05-29T04:23:16.553Z,15.90
2019-05-29T04:25:46.974Z,16.00
2019-05-29T04:28:16.972Z,16.10
2019-05-29T04:30:46.660Z,16.10
2019-05-29T04:33:16.239Z,16.00
2019-05-29T04:35:45.696Z,16.00
2019-05-29T04:38:15.242Z,16.00
2019-05-29T04:40:44.681Z,16.00
2019-05-29T04:43:14.279Z,16.10
2019-05-29T04:45:43.777Z,16.10
2019-05-29T04:48:13.203Z,16.10
2019-05-29T04:50:42.920Z,16.20
2019-05-29T04:53:12.485Z,16.30
2019-05-29T04:55:41.978Z,16.30
2019-05-29T04:58:11.416Z,16.30
2019-05-29T05:00:55.993Z,16.30
2019-05-29T05:03:12.115Z,16.40
2019-05-29T05:05:41.592Z,16.40
2019-05-29T05:08:11.028Z,16.50
2019-05-29T05:10:41.464Z,16.60
2019-05-29T05:13:11.236Z,16.70
2019-05-29T05:15:41.887Z,16.60
2019-05-29T05:18:11.690Z,16.70
2019-05-29T05:20:41.183Z,16.70
2019-05-29T05:23:10.743Z,16.70
2019-05-29T05:25:41.003Z,16.70
2019-05-29T05:28:10.814Z,16.70
2019-05-29T05:30:40.810Z,16.70
2019-05-29T05:33:11.768Z,16.70
2019-05-29T05:35:41.305Z,16.80
2019-05-29T05:38:10.750Z,16.80
2019-05-29T05:40:43.007Z,16.90
2019-05-29T05:43:23.559Z,16.90
2019-05-29T05:45:42.574Z,17.10
2019-05-29T05:48:12.354Z,17.10
2019-05-29T05:50:41.784Z,17.30
2019-05-29T05:53:11.233Z,17.50
2019-05-29T05:55:41.824Z,17.60
2019-05-29T05:58:11.538Z,17.60
2019-05-29T06:00:42.064Z,17.50
2019-05-29T06:03:11.669Z,17.40
2019-05-29T06:05:42.324Z,17.50
2019-05-29T06:08:11.958Z,17.50
2019-05-29T06:10:42.426Z,17.50
2019-05-29T06:13:12.067Z,17.40
2019-05-29T06:15:42.837Z,17.50
2019-05-29T06:18:21.279Z,17.50
2019-05-29T06:20:43.722Z,17.70
2019-05-29T06:23:13.230Z,17.70
2019-05-29T06:25:43.847Z,17.70
2019-05-29T06:28:13.567Z,17.70
2019-05-29T06:30:45.102Z,17.60
2019-05-29T06:33:14.765Z,17.60
2019-05-29T06:35:44.248Z,17.70
2019-05-29T06:38:13.778Z,17.70
2019-05-29T06:40:44.635Z,17.80
2019-05-29T06:43:17.323Z,17.80
2019-05-29T06:45:46.853Z,17.80
2019-05-29T06:48:37.886Z,17.80
2019-05-29T06:50:50.635Z,17.70
2019-05-29T06:53:20.374Z,17.80
2019-05-29T06:55:54.239Z,17.80
2019-05-29T06:58:21.316Z,17.80
2019-05-29T07:00:50.919Z,17.90
2019-05-29T07:03:20.526Z,18.10
2019-05-29T07:05:52.539Z,18.30
2019-05-29T07:08:37.520Z,18.40
2019-05-29T07:10:52.560Z,18.40
2019-05-29T07:13:22.026Z,18.50
2019-05-29T07:15:51.434Z,18.40
2019-05-29T07:18:20.928Z,18.60
2019-05-29T07:20:51.435Z,18.60
2019-05-29T07:23:21.092Z,18.70
2019-05-29T07:25:50.664Z,18.70
2019-05-29T07:28:20.202Z,18.80
2019-05-29T07:31:01.041Z,18.70
2019-05-29T07:33:20.889Z,18.70
2019-05-29T07:35:50.447Z,18.70
2019-05-29T07:38:19.934Z,18.70
2019-05-29T07:40:50.138Z,18.80
2019-05-29T07:43:19.932Z,18.80
2019-05-29T07:45:49.528Z,19.20
2019-05-29T07:48:19.001Z,19.20
2019-05-29T07:50:48.593Z,19.30
2019-05-29T07:53:18.771Z,19.30
2019-05-29T07:55:49.007Z,19.30
2019-05-29T07:58:18.778Z,19.30
2019-05-29T08:01:09.948Z,19.30
2019-05-29T08:03:19.517Z,19.30
2019-05-29T08:05:51.451Z,19.20
2019-05-29T08:08:20.284Z,19.10
2019-05-29T08:10:49.987Z,18.90
2019-05-29T08:13:19.594Z,18.90
2019-05-29T08:15:58.424Z,19.10
2019-05-29T08:18:20.254Z,19.10
2019-05-29T08:20:50.341Z,19.10
2019-05-29T08:23:19.891Z,19.20
2019-05-29T08:25:49.684Z,19.10
2019-05-29T08:28:19.246Z,19.10
2019-05-29T08:30:55.532Z,19.20
2019-05-29T08:33:20.003Z,19.30
2019-05-29T08:35:57.661Z,19.50
2019-05-29T08:38:20.776Z,19.60
2019-05-29T08:40:50.169Z,19.70
2019-05-29T08:43:19.584Z,19.80
2019-05-29T08:45:49.716Z,19.70
2019-05-29T08:48:19.334Z,19.90
2019-05-29T08:50:49.864Z,19.90
2019-05-29T08:53:19.601Z,19.70
2019-05-29T08:55:50.390Z,19.60
2019-05-29T08:58:20.274Z,19.60
2019-05-29T09:00:53.141Z,19.40
2019-05-29T09:03:20.851Z,19.30
2019-05-29T09:06:07.896Z,19.30
2019-05-29T09:08:22.662Z,19.20
2019-05-29T09:10:53.925Z,19.30
2019-05-29T09:13:23.474Z,19.40
2019-05-29T09:15:53.056Z,19.60
2019-05-29T09:18:25.534Z,19.70
2019-05-29T09:21:02.837Z,19.90
2019-05-29T09:23:24.963Z,20.10
2019-05-29T09:25:54.508Z,20.20
2019-05-29T09:28:23.940Z,20.50
2019-05-29T09:30:53.802Z,20.70
2019-05-29T09:33:24.531Z,20.90
2019-05-29T09:35:54.255Z,20.70
2019-05-29T09:38:25.062Z,19.90
2019-05-29T09:40:54.888Z,18.90
2019-05-29T09:43:29.798Z,18.30
2019-05-29T09:45:55.711Z,17.90
2019-05-29T09:48:28.566Z,17.70
2019-05-29T09:50:56.617Z,17.70
2019-05-29T09:53:26.679Z,17.60
2019-05-29T09:55:57.835Z,17.50
2019-05-29T09:58:27.991Z,17.60
2019-05-29T10:01:15.424Z,18.10
2019-05-29T10:03:28.497Z,18.10
2019-05-29T10:05:59.360Z,18.10
2019-05-29T10:08:29.169Z,18.20
2019-05-29T10:11:07.920Z,18.00
2019-05-29T10:13:30.010Z,18.10
2019-05-29T10:16:00.865Z,18.00
2019-05-29T10:18:32.718Z,17.90
2019-05-29T10:21:03.143Z,18.10
2019-05-29T10:23:32.915Z,17.80
2019-05-29T10:26:03.397Z,17.40
2019-05-29T10:31:02.109Z,17.30
2019-05-29T10:31:05.397Z,17.10
2019-05-29T10:33:35.154Z,17.00
2019-05-29T10:36:04.767Z,16.90
2019-05-29T10:38:34.611Z,16.90
2019-05-29T10:41:06.965Z,16.60
2019-05-29T10:43:35.609Z,16.30
2019-05-29T10:46:05.598Z,16.20
2019-05-29T10:48:35.145Z,15.80
2019-05-29T10:51:04.841Z,15.80
2019-05-29T10:53:34.406Z,15.70
2019-05-29T10:56:04.152Z,15.50
2019-05-29T10:58:47.969Z,15.40
2019-05-29T11:01:04.978Z,15.50
2019-05-29T11:03:34.482Z,15.40
2019-05-29T11:06:04.404Z,15.10
2019-05-29T11:08:34.046Z,15.10
2019-05-29T11:11:03.774Z,14.90
2019-05-29T11:13:33.292Z,14.80
2019-05-29T11:16:02.760Z,14.70
2019-05-29T11:18:32.331Z,14.70
2019-05-29T11:21:01.865Z,14.60
2019-05-29T11:23:31.953Z,14.60
2019-05-29T11:26:01.455Z,14.50
2019-05-29T11:28:30.931Z,14.40
2019-05-29T11:31:06.233Z,14.50
2019-05-29T11:33:31.692Z,14.50
2019-05-29T11:36:10.679Z,14.50
2019-05-29T11:38:32.417Z,14.50
2019-05-29T11:41:23.726Z,14.50
2019-05-29T11:43:33.300Z,14.50
2019-05-29T11:46:02.951Z,14.50
2019-05-29T11:48:32.520Z,14.60
2019-05-29T11:51:02.428Z,14.60
2019-05-29T11:53:32.098Z,14.60
2019-05-29T11:56:02.066Z,14.60
2019-05-29T11:58:31.934Z,14.50
2019-05-29T12:01:01.651Z,14.60
2019-05-29T12:03:31.156Z,14.50
2019-05-29T12:06:03.162Z,14.50
2019-05-29T12:08:31.800Z,14.60
2019-05-29T12:11:02.448Z,14.40
2019-05-29T12:13:32.024Z,14.50
2019-05-29T12:16:01.895Z,14.50
2019-05-29T12:18:32.566Z,14.50
2019-05-29T12:21:02.968Z,14.40
2019-05-29T12:23:32.591Z,14.50
2019-05-29T12:26:20.597Z,14.50
2019-05-29T12:28:33.379Z,14.40
2019-05-29T12:31:03.491Z,14.50
2019-05-29T12:33:33.159Z,14.40
2019-05-29T12:36:03.368Z,14.50
2019-05-29T12:38:33.006Z,14.50
2019-05-29T12:41:03.849Z,14.60
2019-05-29T12:43:33.638Z,14.50
2019-05-29T12:46:04.039Z,14.50
2019-05-29T12:48:33.706Z,14.40
2019-05-29T12:51:04.135Z,14.30
2019-05-29T12:53:34.067Z,14.30
2019-05-29T12:56:04.658Z,14.30
2019-05-29T12:58:34.412Z,14.20
2019-05-29T13:01:05.138Z,14.10
2019-05-29T13:03:35.592Z,14.00
2019-05-29T13:06:05.306Z,13.90
2019-05-29T13:08:34.872Z,13.90
2019-05-29T13:11:05.058Z,13.80
2019-05-29T13:13:34.815Z,13.90
2019-05-29T13:16:05.259Z,13.80
2019-05-29T13:18:35.349Z,13.80
2019-05-29T13:21:05.196Z,13.80
2019-05-29T13:23:44.814Z,13.80
2019-05-29T13:26:06.307Z,13.80
2019-05-29T13:28:35.885Z,13.80
2019-05-29T13:31:06.738Z,13.80
2019-05-29T13:33:36.584Z,13.80
2019-05-29T13:36:06.809Z,13.70
2019-05-29T13:38:36.641Z,13.60
2019-05-29T13:41:06.630Z,13.70
2019-05-29T13:43:36.278Z,13.60
2019-05-29T13:46:06.043Z,13.60
2019-05-29T13:48:35.681Z,13.60
2019-05-29T13:51:05.581Z,13.70
2019-05-29T13:53:35.202Z,13.80
2019-05-29T13:56:06.171Z,13.70
2019-05-29T13:58:35.901Z,13.60
2019-05-29T14:01:06.385Z,13.50
2019-05-29T14:03:35.932Z,13.40
2019-05-29T14:06:07.353Z,13.30
2019-05-29T14:08:36.692Z,13.30
2019-05-29T14:11:07.236Z,13.20
2019-05-29T14:13:36.840Z,13.20
2019-05-29T14:16:06.885Z,13.20
2019-05-29T14:18:36.493Z,13.20
2019-05-29T14:21:09.169Z,13.20
2019-05-29T14:23:39.941Z,13.10
2019-05-29T14:26:09.716Z,13.10
2019-05-29T14:28:39.284Z,13.20
2019-05-29T14:31:10.095Z,13.20
2019-05-29T14:33:39.847Z,13.20
2019-05-29T14:36:09.373Z,13.30
2019-05-29T14:38:38.794Z,13.40
2019-05-29T14:41:08.274Z,13.40
2019-05-29T14:43:37.648Z,13.40
2019-05-29T14:46:08.107Z,13.40
2019-05-29T14:48:37.727Z,13.40
2019-05-29T14:51:08.466Z,13.40
2019-05-29T14:53:38.068Z,13.50
2019-05-29T14:56:08.880Z,13.50
2019-05-29T14:58:38.482Z,13.40
2019-05-29T15:01:09.121Z,13.50
2019-05-29T15:03:38.723Z,13.50
2019-05-29T15:06:11.747Z,13.50
2019-05-29T15:08:41.198Z,13.60
2019-05-29T15:11:11.976Z,13.60
2019-05-29T15:13:41.624Z,13.60
2019-05-29T15:16:11.140Z,13.60
2019-05-29T15:18:40.531Z,13.60
2019-05-29T15:21:10.971Z,13.60
2019-05-29T15:23:40.799Z,13.60
2019-05-29T15:26:11.615Z,13.60
2019-05-29T15:28:41.260Z,13.70
2019-05-29T15:31:10.832Z,13.60
2019-05-29T15:33:40.361Z,13.60
2019-05-29T15:36:10.565Z,13.60
2019-05-29T15:38:40.228Z,13.60
2019-05-29T15:41:10.705Z,13.50
2019-05-29T15:43:40.302Z,13.60
2019-05-29T15:46:10.531Z,13.50
2019-05-29T15:48:41.110Z,13.50
2019-05-29T15:51:10.970Z,13.50
2019-05-29T15:53:41.677Z,13.50
2019-05-29T15:56:23.728Z,13.60
2019-05-29T15:58:42.381Z,13.50
2019-05-29T16:01:11.863Z,13.60
2019-05-29T16:03:41.446Z,13.70
2019-05-29T16:06:11.800Z,13.70
2019-05-29T16:08:41.351Z,13.70
2019-05-29T16:11:10.749Z,13.70
2019-05-29T16:13:40.327Z,13.70
2019-05-29T16:16:11.001Z,13.70
2019-05-29T16:18:40.596Z,13.70
2019-05-29T16:21:10.658Z,13.70
2019-05-29T16:23:40.267Z,13.80
2019-05-29T16:26:10.931Z,13.70
2019-05-29T16:28:40.640Z,13.70
2019-05-29T16:31:10.633Z,13.70
2019-05-29T16:33:40.147Z,13.70
2019-05-29T16:36:09.603Z,13.70
2019-05-29T16:38:39.145Z,13.70
2019-05-29T16:41:08.704Z,13.70
2019-05-29T16:43:38.285Z,13.60
2019-05-29T16:46:07.848Z,13.70
2019-05-29T16:48:37.367Z,13.70
2019-05-29T16:51:06.851Z,13.70
2019-05-29T16:53:36.254Z,13.70
2019-05-29T16:56:05.800Z,13.60
2019-05-29T16:58:35.346Z,13.60
2019-05-29T17:01:04.980Z,13.60
2019-05-29T17:03:34.507Z,13.70
2019-05-29T17:06:04.079Z,13.70
2019-05-29T17:08:33.615Z,13.70
2019-05-29T17:11:04.966Z,13.70
2019-05-29T17:13:34.227Z,13.70
2019-05-29T17:16:03.897Z,13.70
2019-05-29T17:18:33.381Z,13.70
2019-05-29T17:21:02.780Z,13.70
2019-05-29T17:23:32.323Z,13.70
2019-05-29T17:26:10.507Z,13.60
2019-05-29T17:28:33.096Z,13.70
2019-05-29T17:31:02.792Z,13.70
2019-05-29T17:33:32.521Z,13.60
2019-05-29T17:36:02.049Z,13.60
2019-05-29T17:38:31.565Z,13.70
2019-05-29T17:41:01.059Z,13.60
2019-05-29T17:43:30.725Z,13.60
2019-05-29T17:46:00.162Z,13.60
2019-05-29T17:48:29.767Z,13.60
2019-05-29T17:50:59.497Z,13.60
2019-05-29T17:53:29.107Z,13.60
2019-05-29T17:55:58.563Z,13.50
2019-05-29T17:58:28.130Z,13.50
2019-05-29T18:00:57.792Z,13.50
2019-05-29T18:03:27.388Z,13.50
2019-05-29T18:05:56.861Z,13.50
2019-05-29T18:08:26.968Z,13.50
2019-05-29T18:10:56.606Z,13.50
2019-05-29T18:13:27.420Z,13.40
2019-05-29T18:15:58.520Z,13.40
2019-05-29T18:18:28.047Z,13.40
2019-05-29T18:20:57.527Z,13.40
2019-05-29T18:23:28.205Z,13.30
2019-05-29T18:25:58.893Z,13.30
2019-05-29T18:28:28.925Z,13.30
2019-05-29T18:30:58.439Z,13.20
2019-05-29T18:33:28.915Z,13.30
2019-05-29T18:35:58.602Z,13.30
2019-05-29T18:38:28.722Z,13.30
2019-05-29T18:40:58.783Z,13.20
2019-05-29T18:43:28.771Z,13.20
2019-05-29T18:45:59.361Z,13.20
2019-05-29T18:48:29.521Z,13.20
2019-05-29T18:50:59.159Z,13.20
2019-05-29T18:53:28.959Z,13.20
2019-05-29T18:55:58.432Z,13.10
2019-05-29T18:58:28.193Z,13.10
2019-05-29T19:00:57.794Z,13.10
2019-05-29T19:03:27.581Z,13.10
2019-05-29T19:05:57.158Z,13.10
2019-05-29T19:08:27.781Z,13.10
2019-05-29T19:10:57.437Z,13.10
2019-05-29T19:13:27.937Z,13.10
2019-05-29T19:15:57.708Z,13.10
2019-05-29T19:18:28.248Z,13.00
2019-05-29T19:20:57.811Z,13.00
2019-05-29T19:23:28.567Z,13.00
2019-05-29T19:25:58.279Z,13.00
2019-05-29T19:28:28.668Z,13.00
2019-05-29T19:30:59.350Z,13.00
2019-05-29T19:33:29.378Z,13.00
2019-05-29T19:35:58.915Z,13.00
2019-05-29T19:38:28.347Z,13.00
2019-05-29T19:40:57.748Z,13.00
2019-05-29T19:43:28.272Z,13.00
2019-05-29T19:45:57.918Z,13.00
2019-05-29T19:48:28.848Z,13.00
2019-05-29T19:50:58.467Z,13.00
2019-05-29T19:53:29.416Z,13.00
2019-05-29T19:55:59.035Z,13.00
2019-05-29T19:58:29.707Z,13.00
2019-05-29T20:00:59.410Z,13.00
2019-05-29T20:03:28.934Z,13.00
2019-05-29T20:05:58.460Z,13.10
2019-05-29T20:08:32.297Z,13.00
2019-05-29T20:10:58.950Z,13.00
2019-05-29T20:13:29.585Z,13.00
2019-05-29T20:15:59.494Z,13.00
2019-05-29T20:18:30.044Z,13.00
2019-05-29T20:20:59.570Z,12.90
2019-05-29T20:23:28.982Z,12.90
2019-05-29T20:25:58.423Z,13.00
2019-05-29T20:28:27.962Z,12.90
2019-05-29T20:30:57.439Z,12.90
2019-05-29T20:33:26.850Z,12.90
2019-05-29T20:35:56.270Z,12.90
2019-05-29T20:38:25.712Z,12.90
2019-05-29T20:40:55.216Z,12.90
2019-05-29T20:43:24.677Z,12.90
2019-05-29T20:45:54.167Z,12.90
2019-05-29T20:48:23.784Z,12.90
2019-05-29T20:50:53.270Z,12.90
2019-05-29T20:53:23.860Z,12.80
2019-05-29T20:55:53.249Z,12.80
2019-05-29T20:58:24.843Z,12.80
2019-05-29T21:00:53.884Z,12.80
2019-05-29T21:03:23.333Z,12.70
2019-05-29T21:05:52.815Z,12.80
2019-05-29T21:08:22.396Z,12.70
2019-05-29T21:10:51.830Z,12.80
2019-05-29T21:13:21.486Z,12.80
2019-05-29T21:15:50.893Z,12.80
2019-05-29T21:18:20.378Z,12.80
2019-05-29T21:20:49.782Z,12.80
2019-05-29T21:23:19.590Z,12.80
2019-05-29T21:25:49.064Z,12.80
2019-05-29T21:28:18.509Z,12.80
2019-05-29T21:30:47.923Z,12.80
2019-05-29T21:33:17.340Z,12.80
2019-05-29T21:35:46.803Z,12.70
2019-05-29T21:38:16.331Z,12.70
2019-05-29T21:40:46.823Z,12.70
2019-05-29T21:43:17.377Z,12.80
2019-05-29T21:45:47.301Z,12.80
2019-05-29T21:48:17.839Z,12.70
2019-05-29T21:50:47.467Z,12.70
2019-05-29T21:53:17.071Z,12.70
2019-05-29T21:55:47.720Z,12.70
2019-05-29T21:58:17.448Z,12.70
2019-05-29T22:00:51.018Z,12.70
2019-05-29T22:03:22.136Z,12.60
2019-05-29T22:05:51.760Z,12.70
2019-05-29T22:08:21.263Z,12.70
2019-05-29T22:10:51.418Z,12.70
2019-05-29T22:13:21.043Z,12.70
2019-05-29T22:15:50.756Z,12.60
2019-05-29T22:18:20.265Z,12.60
2019-05-29T22:20:50.961Z,12.60
2019-05-29T22:23:20.703Z,12.60
2019-05-29T22:25:51.144Z,12.60
2019-05-29T22:28:20.818Z,12.50
2019-05-29T22:30:51.388Z,12.50
2019-05-29T22:33:20.830Z,12.50
2019-05-29T22:35:52.663Z,12.50
2019-05-29T22:38:21.495Z,12.50
2019-05-29T22:40:52.178Z,12.50
2019-05-29T22:43:22.215Z,12.40
2019-05-29T22:45:51.896Z,12.40
2019-05-29T22:48:21.418Z,12.30
2019-05-29T22:50:51.650Z,12.30
2019-05-29T22:53:22.372Z,12.20
2019-05-29T22:55:51.911Z,12.20
2019-05-29T22:58:21.364Z,12.20
2019-05-29T23:00:51.818Z,12.10
2019-05-29T23:03:21.394Z,12.10
2019-05-29T23:05:51.982Z,12.10
2019-05-29T23:08:21.559Z,12.10
2019-05-29T23:10:52.191Z,12.00
2019-05-29T23:13:21.790Z,11.90
2019-05-29T23:15:52.386Z,11.90
2019-05-29T23:18:21.919Z,11.90
2019-05-29T23:20:52.361Z,11.90
2019-05-29T23:23:22.043Z,11.90
2019-05-29T23:25:52.527Z,11.70
2019-05-29T23:28:22.204Z,11.80
2019-05-29T23:30:52.752Z,11.70
2019-05-29T23:33:22.423Z,11.70
2019-05-29T23:35:52.886Z,11.70
2019-05-29T23:38:22.701Z,11.60
2019-05-29T23:40:53.214Z,11.60
2019-05-29T23:43:22.761Z,11.60
2019-05-29T23:45:53.199Z,11.50
2019-05-29T23:48:22.843Z,11.50
2019-05-29T23:50:53.356Z,11.40
2019-05-29T23:53:22.931Z,11.40
2019-05-29T23:55:53.887Z,11.30
2019-05-29T23:58:24.974Z,11.30
